sensor_id;sensor_type;location;lat;lon;timestamp;P1;durP1;ratioP1;P2;durP2;ratioP2
9807;SDS011;4943;52.550;13.462;2023-09-12T00:02:15;296.27;;;148.20;;
9807;SDS011;4943;52.550;13.462;2023-09-12T00:04:44;302.40;;;150.13;;
9807;SDS011;4943;52.550;13.462;2023-09-12T00:07:12;300.40;;;148.67;;
9807;SDS011;4943;52.550;13.462;2023-09-12T00:09:40;297.97;;;146.53;;
9807;SDS011;4943;52.550;13.462;2023-09-12T00:12:08;296.23;;;147.50;;
9807;SDS011;4943;52.550;13.462;2023-09-12T00:14:40;297.57;;;146.47;;
9807;SDS011;4943;52.550;13.462;2023-09-12T00:17:08;293.90;;;142.20;;
9807;SDS011;4943;52.550;13.462;2023-09-12T00:19:36;301.37;;;141.73;;
9807;SDS011;4943;52.550;13.462;2023-09-12T00:22:06;296.63;;;143.17;;
9807;SDS011;4943;52.550;13.462;2023-09-12T00:24:35;301.00;;;145.83;;
9807;SDS011;4943;52.550;13.462;2023-09-12T00:27:04;293.63;;;141.97;;
9807;SDS011;4943;52.550;13.462;2023-09-12T00:29:32;289.30;;;142.37;;
9807;SDS011;4943;52.550;13.462;2023-09-12T00:32:01;291.33;;;141.10;;
9807;SDS011;4943;52.550;13.462;2023-09-12T00:34:29;294.20;;;142.20;;
9807;SDS011;4943;52.550;13.462;2023-09-12T00:36:57;303.03;;;140.10;;
9807;SDS011;4943;52.550;13.462;2023-09-12T00:39:26;294.63;;;139.37;;
9807;SDS011;4943;52.550;13.462;2023-09-12T00:41:54;289.40;;;138.20;;
9807;SDS011;4943;52.550;13.462;2023-09-12T00:44:22;299.40;;;142.27;;
9807;SDS011;4943;52.550;13.462;2023-09-12T00:46:50;298.37;;;142.67;;
9807;SDS011;4943;52.550;13.462;2023-09-12T00:49:20;299.07;;;141.60;;
9807;SDS011;4943;52.550;13.462;2023-09-12T00:51:49;297.73;;;144.60;;
9807;SDS011;4943;52.550;13.462;2023-09-12T00:54:17;295.43;;;140.97;;
9807;SDS011;4943;52.550;13.462;2023-09-12T00:56:47;303.37;;;141.03;;
9807;SDS011;4943;52.550;13.462;2023-09-12T00:59:15;298.17;;;137.97;;
9807;SDS011;4943;52.550;13.462;2023-09-12T01:01:45;289.93;;;136.90;;
9807;SDS011;4943;52.550;13.462;2023-09-12T01:04:13;284.63;;;134.93;;
9807;SDS011;4943;52.550;13.462;2023-09-12T01:07:00;293.07;;;132.87;;
9807;SDS011;4943;52.550;13.462;2023-09-12T01:09:31;289.20;;;134.23;;
9807;SDS011;4943;52.550;13.462;2023-09-12T01:12:00;285.30;;;131.70;;
9807;SDS011;4943;52.550;13.462;2023-09-12T01:14:29;286.27;;;132.67;;
9807;SDS011;4943;52.550;13.462;2023-09-12T01:16:57;291.47;;;134.73;;
9807;SDS011;4943;52.550;13.462;2023-09-12T01:19:27;289.27;;;134.13;;
9807;SDS011;4943;52.550;13.462;2023-09-12T01:22:05;292.13;;;133.37;;
9807;SDS011;4943;52.550;13.462;2023-09-12T01:27:58;293.73;;;128.70;;
9807;SDS011;4943;52.550;13.462;2023-09-12T01:30:29;288.83;;;132.50;;
9807;SDS011;4943;52.550;13.462;2023-09-12T01:33:00;283.67;;;130.43;;
9807;SDS011;4943;52.550;13.462;2023-09-12T01:35:28;286.13;;;128.93;;
9807;SDS011;4943;52.550;13.462;2023-09-12T01:37:56;283.37;;;128.47;;
9807;SDS011;4943;52.550;13.462;2023-09-12T01:40:31;288.67;;;129.17;;
9807;SDS011;4943;52.550;13.462;2023-09-12T01:43:03;283.87;;;131.07;;
9807;SDS011;4943;52.550;13.462;2023-09-12T01:45:33;283.03;;;128.40;;
9807;SDS011;4943;52.550;13.462;2023-09-12T01:48:04;295.73;;;133.63;;
9807;SDS011;4943;52.550;13.462;2023-09-12T01:50:33;290.90;;;129.33;;
9807;SDS011;4943;52.550;13.462;2023-09-12T01:53:03;290.27;;;131.70;;
9807;SDS011;4943;52.550;13.462;2023-09-12T01:55:32;282.87;;;128.83;;
9807;SDS011;4943;52.550;13.462;2023-09-12T01:58:01;283.27;;;127.10;;
9807;SDS011;4943;52.550;13.462;2023-09-12T02:00:32;285.80;;;128.53;;
9807;SDS011;4943;52.550;13.462;2023-09-12T02:03:01;290.47;;;131.97;;
9807;SDS011;4943;52.550;13.462;2023-09-12T02:05:30;280.90;;;127.00;;
9807;SDS011;4943;52.550;13.462;2023-09-12T02:07:59;284.50;;;126.33;;
9807;SDS011;4943;52.550;13.462;2023-09-12T02:10:27;286.43;;;128.63;;
9807;SDS011;4943;52.550;13.462;2023-09-12T02:12:55;284.67;;;126.90;;
9807;SDS011;4943;52.550;13.462;2023-09-12T02:15:25;287.07;;;126.87;;
9807;SDS011;4943;52.550;13.462;2023-09-12T02:17:53;286.70;;;129.43;;
9807;SDS011;4943;52.550;13.462;2023-09-12T02:20:21;285.67;;;129.63;;
9807;SDS011;4943;52.550;13.462;2023-09-12T02:22:49;292.87;;;128.00;;
9807;SDS011;4943;52.550;13.462;2023-09-12T02:25:17;285.43;;;127.87;;
9807;SDS011;4943;52.550;13.462;2023-09-12T02:27:45;286.57;;;129.10;;
9807;SDS011;4943;52.550;13.462;2023-09-12T02:30:13;290.17;;;127.83;;
9807;SDS011;4943;52.550;13.462;2023-09-12T02:32:43;290.10;;;128.40;;
9807;SDS011;4943;52.550;13.462;2023-09-12T02:35:11;289.27;;;125.07;;
9807;SDS011;4943;52.550;13.462;2023-09-12T02:37:39;292.33;;;125.50;;
9807;SDS011;4943;52.550;13.462;2023-09-12T02:40:08;288.13;;;128.00;;
9807;SDS011;4943;52.550;13.462;2023-09-12T02:42:38;284.40;;;126.50;;
9807;SDS011;4943;52.550;13.462;2023-09-12T02:45:06;288.37;;;126.90;;
9807;SDS011;4943;52.550;13.462;2023-09-12T02:47:35;288.20;;;126.43;;
9807;SDS011;4943;52.550;13.462;2023-09-12T02:50:05;284.47;;;124.80;;
9807;SDS011;4943;52.550;13.462;2023-09-12T02:52:34;287.87;;;122.87;;
9807;SDS011;4943;52.550;13.462;2023-09-12T02:55:02;288.20;;;125.27;;
9807;SDS011;4943;52.550;13.462;2023-09-12T02:57:31;285.53;;;122.43;;
9807;SDS011;4943;52.550;13.462;2023-09-12T02:59:59;286.33;;;122.77;;
9807;SDS011;4943;52.550;13.462;2023-09-12T03:02:27;279.57;;;121.10;;
9807;SDS011;4943;52.550;13.462;2023-09-12T03:04:56;283.67;;;121.17;;
9807;SDS011;4943;52.550;13.462;2023-09-12T03:07:25;288.87;;;120.77;;
9807;SDS011;4943;52.550;13.462;2023-09-12T03:09:53;279.10;;;121.10;;
9807;SDS011;4943;52.550;13.462;2023-09-12T03:12:23;291.97;;;120.63;;
9807;SDS011;4943;52.550;13.462;2023-09-12T03:14:51;287.57;;;122.60;;
9807;SDS011;4943;52.550;13.462;2023-09-12T03:17:19;295.70;;;123.30;;
9807;SDS011;4943;52.550;13.462;2023-09-12T03:19:47;289.43;;;123.03;;
9807;SDS011;4943;52.550;13.462;2023-09-12T03:22:15;294.63;;;124.90;;
9807;SDS011;4943;52.550;13.462;2023-09-12T03:24:45;286.30;;;121.73;;
9807;SDS011;4943;52.550;13.462;2023-09-12T03:27:13;282.03;;;122.57;;
9807;SDS011;4943;52.550;13.462;2023-09-12T03:29:41;289.07;;;124.07;;
9807;SDS011;4943;52.550;13.462;2023-09-12T03:32:09;288.60;;;122.13;;
9807;SDS011;4943;52.550;13.462;2023-09-12T03:34:37;280.77;;;118.83;;
9807;SDS011;4943;52.550;13.462;2023-09-12T03:37:05;284.90;;;122.00;;
9807;SDS011;4943;52.550;13.462;2023-09-12T03:39:34;295.60;;;120.93;;
9807;SDS011;4943;52.550;13.462;2023-09-12T03:42:04;291.17;;;120.17;;
9807;SDS011;4943;52.550;13.462;2023-09-12T03:44:32;286.47;;;120.57;;
9807;SDS011;4943;52.550;13.462;2023-09-12T03:47:00;284.20;;;117.43;;
9807;SDS011;4943;52.550;13.462;2023-09-12T03:49:28;281.93;;;119.73;;
9807;SDS011;4943;52.550;13.462;2023-09-12T03:51:56;283.23;;;117.80;;
9807;SDS011;4943;52.550;13.462;2023-09-12T03:54:24;302.37;;;117.07;;
9807;SDS011;4943;52.550;13.462;2023-09-12T03:56:52;283.97;;;119.37;;
9807;SDS011;4943;52.550;13.462;2023-09-12T03:59:22;295.43;;;120.93;;
9807;SDS011;4943;52.550;13.462;2023-09-12T04:01:50;285.60;;;117.27;;
9807;SDS011;4943;52.550;13.462;2023-09-12T04:04:18;293.77;;;122.60;;
9807;SDS011;4943;52.550;13.462;2023-09-12T04:06:46;279.43;;;119.50;;
9807;SDS011;4943;52.550;13.462;2023-09-12T04:09:14;284.20;;;121.63;;
9807;SDS011;4943;52.550;13.462;2023-09-12T04:11:43;288.17;;;120.30;;
9807;SDS011;4943;52.550;13.462;2023-09-12T04:14:13;289.47;;;122.00;;
9807;SDS011;4943;52.550;13.462;2023-09-12T04:16:43;285.60;;;123.73;;
9807;SDS011;4943;52.550;13.462;2023-09-12T04:19:11;288.23;;;125.83;;
9807;SDS011;4943;52.550;13.462;2023-09-12T04:21:40;282.50;;;120.30;;
9807;SDS011;4943;52.550;13.462;2023-09-12T04:24:09;299.40;;;125.80;;
9807;SDS011;4943;52.550;13.462;2023-09-12T04:26:37;288.00;;;125.33;;
9807;SDS011;4943;52.550;13.462;2023-09-12T04:29:05;283.20;;;123.70;;
9807;SDS011;4943;52.550;13.462;2023-09-12T04:31:33;285.23;;;120.87;;
9807;SDS011;4943;52.550;13.462;2023-09-12T04:34:02;286.37;;;124.27;;
9807;SDS011;4943;52.550;13.462;2023-09-12T04:36:30;298.43;;;123.63;;
9807;SDS011;4943;52.550;13.462;2023-09-12T04:38:58;285.57;;;121.10;;
9807;SDS011;4943;52.550;13.462;2023-09-12T04:41:26;285.63;;;123.07;;
9807;SDS011;4943;52.550;13.462;2023-09-12T04:43:55;289.80;;;125.03;;
9807;SDS011;4943;52.550;13.462;2023-09-12T04:46:24;300.77;;;124.57;;
9807;SDS011;4943;52.550;13.462;2023-09-12T04:48:53;288.63;;;122.17;;
9807;SDS011;4943;52.550;13.462;2023-09-12T04:51:22;295.03;;;122.47;;
9807;SDS011;4943;52.550;13.462;2023-09-12T04:53:50;287.90;;;121.57;;
9807;SDS011;4943;52.550;13.462;2023-09-12T04:56:18;297.97;;;127.03;;
9807;SDS011;4943;52.550;13.462;2023-09-12T04:58:46;288.07;;;125.00;;
9807;SDS011;4943;52.550;13.462;2023-09-12T05:01:14;289.47;;;123.63;;
9807;SDS011;4943;52.550;13.462;2023-09-12T05:03:43;285.13;;;124.37;;
9807;SDS011;4943;52.550;13.462;2023-09-12T05:06:11;289.90;;;123.40;;
9807;SDS011;4943;52.550;13.462;2023-09-12T05:08:42;291.57;;;123.77;;
9807;SDS011;4943;52.550;13.462;2023-09-12T05:11:10;294.23;;;129.43;;
9807;SDS011;4943;52.550;13.462;2023-09-12T05:13:40;292.00;;;126.87;;
9807;SDS011;4943;52.550;13.462;2023-09-12T05:16:08;301.60;;;132.33;;
9807;SDS011;4943;52.550;13.462;2023-09-12T05:18:36;294.87;;;135.57;;
9807;SDS011;4943;52.550;13.462;2023-09-12T05:21:04;302.63;;;132.67;;
9807;SDS011;4943;52.550;13.462;2023-09-12T05:23:32;299.20;;;132.47;;
9807;SDS011;4943;52.550;13.462;2023-09-12T05:26:01;294.37;;;133.23;;
9807;SDS011;4943;52.550;13.462;2023-09-12T05:28:30;294.73;;;132.53;;
9807;SDS011;4943;52.550;13.462;2023-09-12T05:30:58;299.30;;;135.87;;
9807;SDS011;4943;52.550;13.462;2023-09-12T05:33:26;295.10;;;137.33;;
9807;SDS011;4943;52.550;13.462;2023-09-12T05:35:57;292.53;;;134.77;;
9807;SDS011;4943;52.550;13.462;2023-09-12T05:38:25;297.60;;;136.77;;
9807;SDS011;4943;52.550;13.462;2023-09-12T05:40:53;296.30;;;137.73;;
9807;SDS011;4943;52.550;13.462;2023-09-12T05:43:23;292.07;;;136.40;;
9807;SDS011;4943;52.550;13.462;2023-09-12T05:45:51;286.67;;;137.43;;
9807;SDS011;4943;52.550;13.462;2023-09-12T05:48:20;304.87;;;141.07;;
9807;SDS011;4943;52.550;13.462;2023-09-12T05:50:48;290.40;;;138.50;;
9807;SDS011;4943;52.550;13.462;2023-09-12T05:53:16;286.90;;;139.07;;
9807;SDS011;4943;52.550;13.462;2023-09-12T05:55:43;291.00;;;139.63;;
9807;SDS011;4943;52.550;13.462;2023-09-12T05:58:12;292.93;;;137.40;;
9807;SDS011;4943;52.550;13.462;2023-09-12T06:00:41;289.47;;;141.97;;
9807;SDS011;4943;52.550;13.462;2023-09-12T06:03:09;307.53;;;140.60;;
9807;SDS011;4943;52.550;13.462;2023-09-12T06:05:39;295.50;;;144.87;;
9807;SDS011;4943;52.550;13.462;2023-09-12T06:08:07;302.33;;;146.40;;
9807;SDS011;4943;52.550;13.462;2023-09-12T06:10:35;289.70;;;143.90;;
9807;SDS011;4943;52.550;13.462;2023-09-12T06:13:04;287.73;;;144.43;;
9807;SDS011;4943;52.550;13.462;2023-09-12T06:15:32;299.47;;;144.57;;
9807;SDS011;4943;52.550;13.462;2023-09-12T06:18:01;293.50;;;145.40;;
9807;SDS011;4943;52.550;13.462;2023-09-12T06:20:29;304.37;;;153.97;;
9807;SDS011;4943;52.550;13.462;2023-09-12T06:22:58;299.13;;;151.90;;
9807;SDS011;4943;52.550;13.462;2023-09-12T06:25:26;299.17;;;149.90;;
9807;SDS011;4943;52.550;13.462;2023-09-12T06:27:55;301.27;;;153.87;;
9807;SDS011;4943;52.550;13.462;2023-09-12T06:30:23;297.57;;;153.70;;
9807;SDS011;4943;52.550;13.462;2023-09-12T06:32:51;302.43;;;159.83;;
9807;SDS011;4943;52.550;13.462;2023-09-12T06:35:20;301.30;;;154.37;;
9807;SDS011;4943;52.550;13.462;2023-09-12T06:37:48;296.83;;;150.03;;
9807;SDS011;4943;52.550;13.462;2023-09-12T06:40:16;293.10;;;157.13;;
9807;SDS011;4943;52.550;13.462;2023-09-12T06:42:45;293.03;;;153.33;;
9807;SDS011;4943;52.550;13.462;2023-09-12T06:45:13;305.07;;;155.63;;
9807;SDS011;4943;52.550;13.462;2023-09-12T06:47:41;290.63;;;154.83;;
9807;SDS011;4943;52.550;13.462;2023-09-12T06:50:09;303.87;;;157.83;;
9807;SDS011;4943;52.550;13.462;2023-09-12T06:52:42;302.87;;;161.20;;
9807;SDS011;4943;52.550;13.462;2023-09-12T06:55:10;297.33;;;159.97;;
9807;SDS011;4943;52.550;13.462;2023-09-12T06:57:38;294.30;;;155.43;;
9807;SDS011;4943;52.550;13.462;2023-09-12T07:00:07;287.47;;;156.07;;
9807;SDS011;4943;52.550;13.462;2023-09-12T07:02:36;296.53;;;162.90;;
9807;SDS011;4943;52.550;13.462;2023-09-12T07:05:05;298.63;;;157.20;;
9807;SDS011;4943;52.550;13.462;2023-09-12T07:07:33;310.40;;;158.67;;
9807;SDS011;4943;52.550;13.462;2023-09-12T07:10:03;295.93;;;164.60;;
9807;SDS011;4943;52.550;13.462;2023-09-12T07:12:50;294.17;;;160.73;;
9807;SDS011;4943;52.550;13.462;2023-09-12T07:15:18;289.43;;;159.90;;
9807;SDS011;4943;52.550;13.462;2023-09-12T07:17:46;294.87;;;166.63;;
9807;SDS011;4943;52.550;13.462;2023-09-12T07:20:14;291.30;;;167.20;;
9807;SDS011;4943;52.550;13.462;2023-09-12T07:22:44;300.77;;;166.03;;
9807;SDS011;4943;52.550;13.462;2023-09-12T07:25:14;292.43;;;168.00;;
9807;SDS011;4943;52.550;13.462;2023-09-12T07:27:43;304.50;;;172.87;;
9807;SDS011;4943;52.550;13.462;2023-09-12T07:30:11;295.13;;;167.50;;
9807;SDS011;4943;52.550;13.462;2023-09-12T07:32:39;291.03;;;168.40;;
9807;SDS011;4943;52.550;13.462;2023-09-12T07:35:07;292.57;;;169.23;;
9807;SDS011;4943;52.550;13.462;2023-09-12T07:37:36;299.63;;;171.43;;
9807;SDS011;4943;52.550;13.462;2023-09-12T07:40:05;298.30;;;178.23;;
9807;SDS011;4943;52.550;13.462;2023-09-12T07:42:37;306.50;;;173.83;;
9807;SDS011;4943;52.550;13.462;2023-09-12T07:45:06;302.73;;;177.67;;
9807;SDS011;4943;52.550;13.462;2023-09-12T07:47:35;300.40;;;173.80;;
9807;SDS011;4943;52.550;13.462;2023-09-12T07:50:03;301.47;;;177.20;;
9807;SDS011;4943;52.550;13.462;2023-09-12T07:52:33;297.30;;;180.73;;
9807;SDS011;4943;52.550;13.462;2023-09-12T07:55:01;302.60;;;178.83;;
9807;SDS011;4943;52.550;13.462;2023-09-12T07:57:30;298.73;;;179.23;;
9807;SDS011;4943;52.550;13.462;2023-09-12T07:59:59;300.10;;;182.13;;
9807;SDS011;4943;52.550;13.462;2023-09-12T08:02:31;296.53;;;180.50;;
9807;SDS011;4943;52.550;13.462;2023-09-12T08:04:59;312.57;;;184.57;;
9807;SDS011;4943;52.550;13.462;2023-09-12T08:07:28;297.03;;;182.73;;
9807;SDS011;4943;52.550;13.462;2023-09-12T08:09:56;305.00;;;186.07;;
9807;SDS011;4943;52.550;13.462;2023-09-12T08:12:25;298.73;;;187.17;;
9807;SDS011;4943;52.550;13.462;2023-09-12T08:14:54;304.83;;;191.90;;
9807;SDS011;4943;52.550;13.462;2023-09-12T08:17:24;292.97;;;188.90;;
9807;SDS011;4943;52.550;13.462;2023-09-12T08:19:52;297.30;;;195.03;;
9807;SDS011;4943;52.550;13.462;2023-09-12T08:22:20;301.57;;;193.80;;
9807;SDS011;4943;52.550;13.462;2023-09-12T08:24:48;304.80;;;198.80;;
9807;SDS011;4943;52.550;13.462;2023-09-12T08:27:16;304.20;;;196.43;;
9807;SDS011;4943;52.550;13.462;2023-09-12T08:29:44;305.87;;;195.67;;
9807;SDS011;4943;52.550;13.462;2023-09-12T08:32:14;303.07;;;194.77;;
9807;SDS011;4943;52.550;13.462;2023-09-12T08:34:45;307.20;;;197.80;;
9807;SDS011;4943;52.550;13.462;2023-09-12T08:37:13;305.73;;;196.10;;
9807;SDS011;4943;52.550;13.462;2023-09-12T08:39:41;305.93;;;195.13;;
9807;SDS011;4943;52.550;13.462;2023-09-12T08:42:11;295.60;;;193.77;;
9807;SDS011;4943;52.550;13.462;2023-09-12T08:44:41;300.93;;;198.90;;
9807;SDS011;4943;52.550;13.462;2023-09-12T08:47:11;315.00;;;194.43;;
9807;SDS011;4943;52.550;13.462;2023-09-12T08:49:39;303.70;;;196.90;;
9807;SDS011;4943;52.550;13.462;2023-09-12T08:52:10;301.17;;;199.00;;
9807;SDS011;4943;52.550;13.462;2023-09-12T08:54:38;307.30;;;199.80;;
9807;SDS011;4943;52.550;13.462;2023-09-12T08:57:06;300.90;;;204.20;;
9807;SDS011;4943;52.550;13.462;2023-09-12T08:59:36;305.40;;;210.77;;
9807;SDS011;4943;52.550;13.462;2023-09-12T09:02:06;301.90;;;207.83;;
9807;SDS011;4943;52.550;13.462;2023-09-12T09:04:38;304.13;;;207.43;;
9807;SDS011;4943;52.550;13.462;2023-09-12T09:07:07;300.10;;;211.20;;
9807;SDS011;4943;52.550;13.462;2023-09-12T09:09:39;302.50;;;200.20;;
9807;SDS011;4943;52.550;13.462;2023-09-12T09:12:08;297.60;;;203.43;;
9807;SDS011;4943;52.550;13.462;2023-09-12T09:14:37;300.77;;;212.33;;
9807;SDS011;4943;52.550;13.462;2023-09-12T09:17:05;309.47;;;214.47;;
9807;SDS011;4943;52.550;13.462;2023-09-12T09:19:43;303.93;;;212.77;;
9807;SDS011;4943;52.550;13.462;2023-09-12T09:22:13;311.33;;;214.13;;
9807;SDS011;4943;52.550;13.462;2023-09-12T09:24:41;311.23;;;214.23;;
9807;SDS011;4943;52.550;13.462;2023-09-12T09:27:09;302.83;;;217.97;;
9807;SDS011;4943;52.550;13.462;2023-09-12T09:29:45;308.73;;;215.93;;
9807;SDS011;4943;52.550;13.462;2023-09-12T09:32:16;313.63;;;212.87;;
9807;SDS011;4943;52.550;13.462;2023-09-12T09:34:48;303.07;;;218.77;;
9807;SDS011;4943;52.550;13.462;2023-09-12T09:37:17;308.20;;;214.77;;
9807;SDS011;4943;52.550;13.462;2023-09-12T09:39:46;303.70;;;219.57;;
9807;SDS011;4943;52.550;13.462;2023-09-12T09:42:18;304.10;;;216.67;;
9807;SDS011;4943;52.550;13.462;2023-09-12T09:44:47;302.73;;;219.50;;
9807;SDS011;4943;52.550;13.462;2023-09-12T09:47:16;306.63;;;219.07;;
9807;SDS011;4943;52.550;13.462;2023-09-12T09:49:46;303.93;;;217.80;;
9807;SDS011;4943;52.550;13.462;2023-09-12T09:52:14;306.00;;;221.03;;
9807;SDS011;4943;52.550;13.462;2023-09-12T09:54:44;303.30;;;219.63;;
9807;SDS011;4943;52.550;13.462;2023-09-12T09:57:12;310.07;;;220.37;;
9807;SDS011;4943;52.550;13.462;2023-09-12T09:59:40;315.93;;;220.57;;
9807;SDS011;4943;52.550;13.462;2023-09-12T10:02:10;308.77;;;220.43;;
9807;SDS011;4943;52.550;13.462;2023-09-12T10:04:48;314.07;;;221.03;;
9807;SDS011;4943;52.550;13.462;2023-09-12T10:07:25;306.67;;;222.10;;
9807;SDS011;4943;52.550;13.462;2023-09-12T10:09:56;303.13;;;220.97;;
9807;SDS011;4943;52.550;13.462;2023-09-12T10:12:28;310.83;;;231.50;;
9807;SDS011;4943;52.550;13.462;2023-09-12T10:14:58;315.17;;;224.23;;
9807;SDS011;4943;52.550;13.462;2023-09-12T10:17:31;315.53;;;230.27;;
9807;SDS011;4943;52.550;13.462;2023-09-12T10:20:04;308.03;;;223.87;;
9807;SDS011;4943;52.550;13.462;2023-09-12T10:22:37;315.90;;;226.60;;
9807;SDS011;4943;52.550;13.462;2023-09-12T10:25:11;308.27;;;225.67;;
9807;SDS011;4943;52.550;13.462;2023-09-12T10:27:39;308.63;;;231.23;;
9807;SDS011;4943;52.550;13.462;2023-09-12T10:30:08;309.37;;;225.60;;
9807;SDS011;4943;52.550;13.462;2023-09-12T10:32:36;301.37;;;227.30;;
9807;SDS011;4943;52.550;13.462;2023-09-12T10:35:06;313.97;;;230.57;;
9807;SDS011;4943;52.550;13.462;2023-09-12T10:37:36;310.93;;;225.90;;
9807;SDS011;4943;52.550;13.462;2023-09-12T10:40:08;310.73;;;231.40;;
9807;SDS011;4943;52.550;13.462;2023-09-12T10:42:39;303.67;;;228.73;;
9807;SDS011;4943;52.550;13.462;2023-09-12T10:45:07;315.33;;;231.30;;
9807;SDS011;4943;52.550;13.462;2023-09-12T10:47:36;319.93;;;234.03;;
9807;SDS011;4943;52.550;13.462;2023-09-12T10:50:06;309.30;;;224.27;;
9807;SDS011;4943;52.550;13.462;2023-09-12T10:52:34;312.93;;;230.83;;
9807;SDS011;4943;52.550;13.462;2023-09-12T10:55:06;307.87;;;229.77;;
9807;SDS011;4943;52.550;13.462;2023-09-12T10:57:36;306.77;;;229.97;;
9807;SDS011;4943;52.550;13.462;2023-09-12T11:00:27;311.90;;;235.20;;
9807;SDS011;4943;52.550;13.462;2023-09-12T11:02:59;312.33;;;231.50;;
9807;SDS011;4943;52.550;13.462;2023-09-12T11:05:51;307.97;;;228.97;;
9807;SDS011;4943;52.550;13.462;2023-09-12T11:08:20;308.77;;;232.07;;
9807;SDS011;4943;52.550;13.462;2023-09-12T11:13:52;305.27;;;229.87;;
9807;SDS011;4943;52.550;13.462;2023-09-12T11:16:30;309.57;;;231.83;;
9807;SDS011;4943;52.550;13.462;2023-09-12T11:19:14;309.60;;;237.70;;
9807;SDS011;4943;52.550;13.462;2023-09-12T11:21:43;316.80;;;246.47;;
9807;SDS011;4943;52.550;13.462;2023-09-12T11:24:12;312.50;;;238.90;;
9807;SDS011;4943;52.550;13.462;2023-09-12T11:26:56;308.03;;;243.53;;
9807;SDS011;4943;52.550;13.462;2023-09-12T11:29:30;310.67;;;245.23;;
9807;SDS011;4943;52.550;13.462;2023-09-12T11:32:03;314.77;;;246.50;;
9807;SDS011;4943;52.550;13.462;2023-09-12T11:34:36;313.13;;;250.23;;
9807;SDS011;4943;52.550;13.462;2023-09-12T11:37:05;313.90;;;251.37;;
9807;SDS011;4943;52.550;13.462;2023-09-12T11:39:34;310.40;;;252.30;;
9807;SDS011;4943;52.550;13.462;2023-09-12T11:42:04;307.13;;;249.87;;
9807;SDS011;4943;52.550;13.462;2023-09-12T11:44:36;322.97;;;263.00;;
9807;SDS011;4943;52.550;13.462;2023-09-12T11:47:05;311.83;;;254.43;;
9807;SDS011;4943;52.550;13.462;2023-09-12T11:49:37;316.50;;;249.30;;
9807;SDS011;4943;52.550;13.462;2023-09-12T11:52:08;312.83;;;254.23;;
9807;SDS011;4943;52.550;13.462;2023-09-12T11:54:37;318.97;;;255.50;;
9807;SDS011;4943;52.550;13.462;2023-09-12T11:57:06;315.07;;;255.20;;
9807;SDS011;4943;52.550;13.462;2023-09-12T11:59:38;318.47;;;263.17;;
9807;SDS011;4943;52.550;13.462;2023-09-12T12:02:07;313.73;;;261.03;;
9807;SDS011;4943;52.550;13.462;2023-09-12T12:04:35;309.10;;;261.97;;
9807;SDS011;4943;52.550;13.462;2023-09-12T12:07:05;313.93;;;267.87;;
9807;SDS011;4943;52.550;13.462;2023-09-12T12:09:34;314.93;;;268.43;;
9807;SDS011;4943;52.550;13.462;2023-09-12T12:12:03;312.33;;;267.70;;
9807;SDS011;4943;52.550;13.462;2023-09-12T12:14:38;316.13;;;269.87;;
9807;SDS011;4943;52.550;13.462;2023-09-12T12:17:07;311.83;;;270.07;;
9807;SDS011;4943;52.550;13.462;2023-09-12T12:19:37;313.27;;;263.73;;
9807;SDS011;4943;52.550;13.462;2023-09-12T12:22:06;307.03;;;267.03;;
9807;SDS011;4943;52.550;13.462;2023-09-12T12:24:37;323.90;;;267.10;;
9807;SDS011;4943;52.550;13.462;2023-09-12T12:27:06;306.07;;;258.47;;
9807;SDS011;4943;52.550;13.462;2023-09-12T12:29:37;314.97;;;258.23;;
9807;SDS011;4943;52.550;13.462;2023-09-12T12:32:06;310.13;;;262.03;;
9807;SDS011;4943;52.550;13.462;2023-09-12T12:34:36;312.13;;;262.27;;
9807;SDS011;4943;52.550;13.462;2023-09-12T12:37:27;311.83;;;259.37;;
9807;SDS011;4943;52.550;13.462;2023-09-12T12:39:58;310.33;;;266.87;;
9807;SDS011;4943;52.550;13.462;2023-09-12T12:42:32;316.63;;;274.33;;
9807;SDS011;4943;52.550;13.462;2023-09-12T12:45:18;324.23;;;269.03;;
9807;SDS011;4943;52.550;13.462;2023-09-12T12:47:50;310.10;;;265.07;;
9807;SDS011;4943;52.550;13.462;2023-09-12T12:50:19;314.20;;;271.30;;
9807;SDS011;4943;52.550;13.462;2023-09-12T12:52:48;308.80;;;267.87;;
9807;SDS011;4943;52.550;13.462;2023-09-12T12:55:16;311.23;;;265.60;;
9807;SDS011;4943;52.550;13.462;2023-09-12T12:57:47;314.80;;;272.33;;
9807;SDS011;4943;52.550;13.462;2023-09-12T13:00:17;330.07;;;270.70;;
9807;SDS011;4943;52.550;13.462;2023-09-12T13:02:45;313.27;;;260.03;;
9807;SDS011;4943;52.550;13.462;2023-09-12T13:05:20;323.40;;;261.47;;
9807;SDS011;4943;52.550;13.462;2023-09-12T13:07:52;312.63;;;259.03;;
9807;SDS011;4943;52.550;13.462;2023-09-12T13:10:21;312.50;;;265.40;;
9807;SDS011;4943;52.550;13.462;2023-09-12T13:12:49;314.87;;;267.37;;
9807;SDS011;4943;52.550;13.462;2023-09-12T13:15:19;318.20;;;269.67;;
9807;SDS011;4943;52.550;13.462;2023-09-12T13:17:47;308.53;;;264.03;;
9807;SDS011;4943;52.550;13.462;2023-09-12T13:20:15;310.57;;;269.57;;
9807;SDS011;4943;52.550;13.462;2023-09-12T13:22:44;321.97;;;269.27;;
9807;SDS011;4943;52.550;13.462;2023-09-12T13:25:12;311.60;;;272.33;;
9807;SDS011;4943;52.550;13.462;2023-09-12T13:27:41;312.43;;;265.10;;
9807;SDS011;4943;52.550;13.462;2023-09-12T13:30:09;317.97;;;274.87;;
9807;SDS011;4943;52.550;13.462;2023-09-12T13:32:39;313.90;;;274.53;;
9807;SDS011;4943;52.550;13.462;2023-09-12T13:35:07;312.13;;;266.87;;
9807;SDS011;4943;52.550;13.462;2023-09-12T13:37:36;313.97;;;272.30;;
9807;SDS011;4943;52.550;13.462;2023-09-12T13:40:04;328.77;;;268.80;;
9807;SDS011;4943;52.550;13.462;2023-09-12T13:42:35;320.20;;;277.20;;
9807;SDS011;4943;52.550;13.462;2023-09-12T13:45:04;318.40;;;278.20;;
9807;SDS011;4943;52.550;13.462;2023-09-12T13:47:33;320.30;;;267.73;;
9807;SDS011;4943;52.550;13.462;2023-09-12T13:50:02;313.10;;;273.73;;
9807;SDS011;4943;52.550;13.462;2023-09-12T13:52:31;319.83;;;277.63;;
9807;SDS011;4943;52.550;13.462;2023-09-12T13:55:00;318.73;;;274.77;;
9807;SDS011;4943;52.550;13.462;2023-09-12T13:57:29;315.53;;;265.70;;
9807;SDS011;4943;52.550;13.462;2023-09-12T14:00:05;317.60;;;265.97;;
9807;SDS011;4943;52.550;13.462;2023-09-12T14:02:34;310.97;;;263.70;;
9807;SDS011;4943;52.550;13.462;2023-09-12T14:05:04;314.03;;;266.60;;
9807;SDS011;4943;52.550;13.462;2023-09-12T14:07:39;314.83;;;261.97;;
9807;SDS011;4943;52.550;13.462;2023-09-12T14:10:08;319.87;;;265.10;;
9807;SDS011;4943;52.550;13.462;2023-09-12T14:12:48;309.50;;;261.67;;
9807;SDS011;4943;52.550;13.462;2023-09-12T14:15:16;315.90;;;259.67;;
9807;SDS011;4943;52.550;13.462;2023-09-12T14:17:45;319.73;;;259.77;;
9807;SDS011;4943;52.550;13.462;2023-09-12T14:20:23;312.80;;;252.17;;
9807;SDS011;4943;52.550;13.462;2023-09-12T14:22:53;306.60;;;252.77;;
9807;SDS011;4943;52.550;13.462;2023-09-12T14:25:21;308.73;;;250.97;;
9807;SDS011;4943;52.550;13.462;2023-09-12T14:27:49;313.50;;;255.03;;
9807;SDS011;4943;52.550;13.462;2023-09-12T14:30:17;313.83;;;265.53;;